Time;durP1;ratioP1;P1;durP2;ratioP2;P2;SDS_P1;SDS_P2;PMS_P1;PMS_P2;Temp;Humidity;BMP_temperature;BMP_pressure;BME280_temperature;BME280_humidity;BME280_pressure;Samples;Min_cycle;Max_cycle;Signal;HPM_P1;HPM_P2
2020/12/25 00:00:08;;;;;;;2.60;1.50;;;6.30;72.10;;;;;;2489800;55;21016;-76
2020/12/25 00:02:34;;;;;;;3.08;2.08;;;6.30;72.20;;;;;;2262025;56;21838;-76
2020/12/25 00:05:01;;;;;;;3.03;1.77;;;6.30;72.30;;;;;;2491409;55;21041;-77
2020/12/25 00:07:28;;;;;;;3.45;1.92;;;6.30;72.30;;;;;;2256511;56;21125;-76
2020/12/25 00:09:55;;;;;;;2.80;1.30;;;6.40;72.30;;;;;;2250640;56;20949;-77
2020/12/25 00:12:23;;;;;;;4.72;2.22;;;6.40;73.00;;;;;;2261653;56;21048;-77
2020/12/25 00:14:50;;;;;;;3.67;2.00;;;6.40;72.30;;;;;;2265078;56;21434;-76
2020/12/25 00:17:19;;;;;;;3.00;1.90;;;6.50;72.40;;;;;;2484336;55;21011;-77
2020/12/25 00:19:46;;;;;;;3.00;1.60;;;6.50;72.40;;;;;;2269589;55;20993;-76
2020/12/25 00:22:12;;;;;;;3.85;2.00;;;6.50;72.50;;;;;;2490804;55;21382;-78
2020/12/25 00:24:40;;;;;;;2.90;1.70;;;6.60;72.60;;;;;;2490439;55;21877;-76
2020/12/25 00:27:07;;;;;;;3.08;1.40;;;6.60;72.60;;;;;;2489988;55;20984;-77
2020/12/25 00:29:34;;;;;;;2.95;1.30;;;6.60;72.60;;;;;;2483945;55;21000;-77
2020/12/25 00:32:00;;;;;;;2.42;1.20;;;6.60;72.50;;;;;;2261325;55;20973;-76
2020/12/25 00:34:27;;;;;;;2.53;1.25;;;6.70;72.50;;;;;;2492340;55;21326;-77
2020/12/25 00:36:55;;;;;;;2.20;1.10;;;6.70;72.50;;;;;;2484406;55;20980;-78
2020/12/25 00:39:21;;;;;;;2.70;1.40;;;6.70;72.40;;;;;;2489476;55;21016;-77
2020/12/25 00:41:49;;;;;;;2.67;1.23;;;6.70;72.40;;;;;;2265678;55;21774;-78
2020/12/25 00:44:15;;;;;;;2.47;1.33;;;6.70;72.40;;;;;;2490481;55;21461;-77
2020/12/25 00:46:42;;;;;;;2.87;1.55;;;6.80;72.60;;;;;;2490819;55;21092;-79
2020/12/25 00:49:10;;;;;;;2.58;1.27;;;6.80;72.60;;;;;;2486225;55;21454;-76
2020/12/25 00:51:37;;;;;;;2.50;1.20;;;6.80;72.50;;;;;;2263272;55;20994;-78
2020/12/25 00:54:03;;;;;;;3.08;1.20;;;6.80;72.50;;;;;;2488055;55;21018;-78
2020/12/25 00:56:29;;;;;;;2.58;1.33;;;6.90;72.60;;;;;;2476161;55;20944;-75
2020/12/25 00:58:57;;;;;;;2.75;1.35;;;6.90;72.50;;;;;;2490527;55;21573;-78
2020/12/25 01:01:26;;;;;;;2.55;1.15;;;6.90;72.50;;;;;;2490835;55;21096;-76
2020/12/25 01:03:54;;;;;;;2.97;1.10;;;6.90;72.60;;;;;;2466155;55;21010;-76
2020/12/25 01:06:21;;;;;;;2.10;1.00;;;6.90;72.60;;;;;;2463255;55;21004;-78
2020/12/25 01:08:49;;;;;;;2.90;1.15;;;7.00;72.70;;;;;;2271380;55;20949;-78
2020/12/25 01:11:16;;;;;;;3.10;1.00;;;7.00;72.60;;;;;;2241674;56;20989;-78
2020/12/25 01:13:44;;;;;;;2.03;1.00;;;7.00;72.60;;;;;;2265625;55;21052;-77
2020/12/25 01:16:18;;;;;;;2.28;1.00;;;7.00;72.50;;;;;;2266931;55;20994;-79
2020/12/25 01:18:48;;;;;;;3.15;1.42;;;7.10;72.50;;;;;;2468181;55;21000;-79
2020/12/25 01:21:15;;;;;;;3.03;1.58;;;7.10;72.50;;;;;;2490586;55;21029;-76
2020/12/25 01:23:43;;;;;;;2.87;1.30;;;7.10;72.40;;;;;;2265914;56;20987;-75
2020/12/25 01:26:10;;;;;;;2.42;1.10;;;7.10;72.40;;;;;;2245198;55;21523;-76
2020/12/25 01:28:37;;;;;;;3.85;1.83;;;7.10;72.30;;;;;;2489180;55;21536;-78
2020/12/25 01:31:03;;;;;;;4.60;1.73;;;7.10;72.30;;;;;;2262218;56;21006;-76
2020/12/25 01:33:31;;;;;;;3.00;1.27;;;7.20;72.30;;;;;;2490560;55;21040;-76
2020/12/25 01:35:57;;;;;;;3.58;1.75;;;7.20;73.00;;;;;;2489704;55;21040;-78
2020/12/25 01:38:25;;;;;;;3.78;1.77;;;7.20;72.20;;;;;;2485071;55;21086;-77
2020/12/25 01:40:52;;;;;;;3.65;1.73;;;7.20;72.10;;;;;;2489209;55;20980;-78
2020/12/25 01:43:20;;;;;;;2.87;1.35;;;7.20;71.90;;;;;;2491266;55;20988;-77
2020/12/25 01:45:47;;;;;;;3.40;1.70;;;7.20;71.80;;;;;;2491052;55;21418;-77
2020/12/25 01:48:14;;;;;;;3.75;1.58;;;7.20;71.80;;;;;;2491087;55;21004;-76
2020/12/25 01:50:40;;;;;;;3.45;1.45;;;7.10;71.70;;;;;;2261620;56;21889;-77
2020/12/25 01:53:08;;;;;;;2.45;1.30;;;7.20;71.90;;;;;;2490819;55;21155;-78
2020/12/25 01:55:34;;;;;;;1.95;1.00;;;7.20;72.00;;;;;;2490162;55;21747;-76
2020/12/25 01:58:01;;;;;;;3.95;1.37;;;7.20;72.10;;;;;;2261239;56;20957;-77
2020/12/25 02:00:31;;;;;;;3.55;1.60;;;7.20;72.10;;;;;;2490888;55;21032;-76
2020/12/25 02:02:59;;;;;;;2.50;1.20;;;7.20;72.10;;;;;;2256511;56;20983;-77
2020/12/25 02:05:25;;;;;;;2.92;1.40;;;7.20;72.10;;;;;;2475998;55;21465;-77
2020/12/25 02:07:55;;;;;;;2.60;1.35;;;7.20;72.10;;;;;;2265729;55;20980;-76
2020/12/25 02:10:22;;;;;;;2.92;1.60;;;7.20;72.10;;;;;;2265354;56;21069;-79
2020/12/25 02:12:51;;;;;;;2.97;1.50;;;7.20;72.10;;;;;;2262167;55;20976;-78
2020/12/25 02:15:17;;;;;;;4.22;1.70;;;7.20;72.00;;;;;;2490215;55;20957;-78
2020/12/25 02:17:45;;;;;;;3.55;1.40;;;7.20;72.70;;;;;;2489164;55;21025;-76
2020/12/25 02:20:15;;;;;;;3.00;1.45;;;7.20;72.00;;;;;;2490396;55;20952;-78
2020/12/25 02:22:42;;;;;;;2.70;1.40;;;7.20;72.00;;;;;;2265567;56;21068;-76
2020/12/25 02:25:12;;;;;;;3.17;1.37;;;7.20;72.00;;;;;;2264962;56;21008;-79
2020/12/25 02:27:39;;;;;;;2.60;1.33;;;7.20;72.10;;;;;;2445229;55;20955;-79
2020/12/25 02:30:06;;;;;;;3.05;1.27;;;7.20;72.10;;;;;;2476455;55;21000;-77
2020/12/25 02:32:33;;;;;;;2.62;1.37;;;7.20;72.00;;;;;;2262230;56;20988;-77
2020/12/25 02:35:12;;;;;;;2.80;1.35;;;7.20;72.00;;;;;;2490431;55;20952;-77
2020/12/25 02:37:39;;;;;;;2.95;1.60;;;7.20;71.80;;;;;;2486365;55;21009;-78
2020/12/25 02:40:06;;;;;;;2.80;1.40;;;7.20;71.90;;;;;;2468931;55;21497;-78
2020/12/25 02:42:35;;;;;;;2.97;1.40;;;7.20;72.00;;;;;;2490480;55;20972;-78
2020/12/25 02:45:03;;;;;;;3.30;1.40;;;7.20;72.10;;;;;;2265506;55;21052;-75
2020/12/25 02:47:30;;;;;;;3.65;1.77;;;7.20;72.20;;;;;;2483112;55;20959;-77
2020/12/25 02:49:57;;;;;;;4.43;1.80;;;7.20;72.30;;;;;;2473050;55;21072;-77
2020/12/25 02:52:24;;;;;;;3.62;1.20;;;7.20;72.30;;;;;;2261928;56;20988;-77
2020/12/25 02:54:51;;;;;;;5.07;1.65;;;7.20;72.30;;;;;;2262756;56;21035;-77
2020/12/25 02:57:17;;;;;;;3.60;1.62;;;7.30;72.40;;;;;;2490243;55;20992;-79
2020/12/25 02:59:44;;;;;;;3.28;1.37;;;7.20;72.20;;;;;;2261981;56;21833;-77
2020/12/25 03:02:10;;;;;;;3.37;1.58;;;7.30;72.30;;;;;;2490917;55;21039;-78
2020/12/25 03:04:38;;;;;;;3.35;1.60;;;7.30;72.30;;;;;;2270240;55;21005;-77
2020/12/25 03:07:05;;;;;;;4.10;1.75;;;7.30;72.20;;;;;;2258668;55;21406;-78
2020/12/25 03:09:32;;;;;;;4.05;2.05;;;7.30;72.10;;;;;;2261305;55;20976;-77
2020/12/25 03:11:58;;;;;;;4.90;1.60;;;7.30;72.10;;;;;;2491421;55;21032;-75
2020/12/25 03:14:25;;;;;;;4.03;1.70;;;7.30;72.10;;;;;;2490737;55;20968;-77
2020/12/25 03:16:52;;;;;;;3.22;1.50;;;7.20;72.00;;;;;;2490533;55;21072;-75
2020/12/25 03:19:20;;;;;;;3.50;1.85;;;7.30;72.10;;;;;;2244545;56;20965;-77
2020/12/25 03:21:46;;;;;;;4.97;1.80;;;7.30;72.20;;;;;;2266392;55;21724;-76
2020/12/25 03:24:13;;;;;;;5.47;1.50;;;7.30;72.10;;;;;;2490077;55;21001;-76
2020/12/25 03:26:39;;;;;;;4.25;1.70;;;7.20;72.00;;;;;;2489288;55;21040;-78
2020/12/25 03:29:12;;;;;;;3.83;1.75;;;7.30;72.00;;;;;;2490087;55;21028;-76
2020/12/25 03:31:38;;;;;;;3.65;1.55;;;7.30;72.00;;;;;;2262735;56;20984;-77
2020/12/25 03:34:05;;;;;;;3.67;1.50;;;7.30;72.10;;;;;;2491094;55;20984;-78
2020/12/25 03:36:32;;;;;;;5.87;1.50;;;7.30;72.10;;;;;;2489806;55;20949;-78
2020/12/25 03:39:00;;;;;;;3.28;1.67;;;7.30;72.20;;;;;;2261854;56;21056;-78
2020/12/25 03:41:26;;;;;;;5.00;1.70;;;7.30;72.10;;;;;;2491249;55;20983;-76
2020/12/25 03:43:53;;;;;;;3.95;1.58;;;7.30;72.00;;;;;;2492415;55;21029;-77
2020/12/25 03:46:22;;;;;;;3.33;1.67;;;7.30;71.90;;;;;;2254380;56;20944;-78
2020/12/25 03:48:48;;;;;;;3.78;1.62;;;7.30;71.90;;;;;;2490597;55;21739;-76
2020/12/25 03:51:15;;;;;;;4.90;1.87;;;7.30;71.90;;;;;;2492551;55;20997;-77
2020/12/25 03:53:45;;;;;;;3.65;1.70;;;7.30;71.80;;;;;;2485440;55;20988;-77
2020/12/25 03:56:14;;;;;;;4.25;1.90;;;7.30;71.70;;;;;;2491473;55;20953;-77
2020/12/25 03:58:41;;;;;;;4.00;1.70;;;7.30;71.50;;;;;;2490022;55;21003;-79
2020/12/25 04:01:08;;;;;;;5.68;1.83;;;7.20;71.30;;;;;;2460871;55;21537;-79
2020/12/25 04:03:35;;;;;;;7.47;2.00;;;7.20;71.10;;;;;;2464407;55;21571;-76
2020/12/25 04:06:07;;;;;;;4.37;1.58;;;7.20;71.00;;;;;;2466421;55;20956;-78
2020/12/25 04:08:35;;;;;;;4.95;1.60;;;7.10;70.90;;;;;;2474799;55;21036;-76
2020/12/25 04:11:05;;;;;;;5.70;2.15;;;7.10;71.00;;;;;;2485680;55;20912;-78
2020/12/25 04:13:34;;;;;;;4.00;1.60;;;7.10;71.00;;;;;;2484612;55;21009;-79
2020/12/25 04:16:01;;;;;;;3.15;1.50;;;7.10;71.10;;;;;;2260421;56;21024;-77
2020/12/25 04:18:29;;;;;;;4.60;2.62;;;7.00;71.10;;;;;;2257384;56;21006;-77
2020/12/25 04:20:59;;;;;;;4.22;1.67;;;7.10;71.40;;;;;;2485424;55;20968;-78
2020/12/25 04:23:27;;;;;;;3.37;1.48;;;7.00;72.10;;;;;;2483714;55;20976;-79
2020/12/25 04:25:54;;;;;;;3.00;1.62;;;7.00;71.60;;;;;;2485342;55;21343;-78
2020/12/25 04:28:21;;;;;;;3.53;1.80;;;7.00;71.70;;;;;;2478229;55;21537;-77
2020/12/25 04:30:47;;;;;;;4.25;1.30;;;7.00;71.80;;;;;;2484597;55;20917;-77
2020/12/25 04:33:17;;;;;;;4.85;2.05;;;7.00;71.90;;;;;;2484875;55;21643;-77
2020/12/25 04:35:43;;;;;;;5.82;1.80;;;7.00;71.90;;;;;;2263136;56;21022;-79
2020/12/25 04:38:10;;;;;;;5.40;1.62;;;7.00;71.90;;;;;;2472962;55;20976;-78
2020/12/25 04:40:37;;;;;;;3.85;1.62;;;7.00;72.00;;;;;;2485834;55;21249;-77
2020/12/25 04:43:06;;;;;;;3.30;1.52;;;7.00;72.00;;;;;;2257138;56;20973;-76
2020/12/25 04:45:33;;;;;;;3.10;1.58;;;7.00;72.10;;;;;;2484523;55;20913;-79
2020/12/25 04:48:02;;;;;;;4.47;1.60;;;7.10;72.20;;;;;;2484944;55;21022;-78
2020/12/25 04:50:29;;;;;;;3.62;1.65;;;7.10;72.20;;;;;;2485164;55;20949;-78
2020/12/25 04:52:58;;;;;;;4.65;1.80;;;7.10;72.20;;;;;;2485344;55;21036;-78
2020/12/25 04:55:25;;;;;;;4.87;1.65;;;7.10;72.30;;;;;;2261111;56;20973;-77
2020/12/25 04:57:53;;;;;;;3.45;1.60;;;7.10;72.30;;;;;;2484077;55;20977;-79
2020/12/25 05:00:20;;;;;;;4.03;1.90;;;7.10;72.20;;;;;;2485507;55;20980;-77
2020/12/25 05:02:50;;;;;;;3.15;1.55;;;7.10;72.10;;;;;;2241501;56;21017;-79
2020/12/25 05:05:17;;;;;;;3.28;1.62;;;7.20;72.10;;;;;;2484316;55;20977;-78
2020/12/25 05:07:48;;;;;;;3.47;1.73;;;7.10;71.80;;;;;;2484250;55;20937;-77
2020/12/25 05:10:15;;;;;;;6.07;2.35;;;7.10;71.70;;;;;;2477657;55;21075;-76
2020/12/25 05:12:41;;;;;;;4.40;1.73;;;7.10;71.70;;;;;;2485435;55;20905;-78
2020/12/25 05:15:08;;;;;;;5.47;1.73;;;7.10;71.50;;;;;;2457068;55;21028;-78
2020/12/25 05:17:35;;;;;;;4.75;1.83;;;7.10;72.20;;;;;;2261483;56;21044;-76
2020/12/25 05:20:03;;;;;;;4.95;2.20;;;7.10;71.50;;;;;;2265714;56;21029;-77
2020/12/25 05:22:30;;;;;;;4.45;2.00;;;7.10;71.50;;;;;;2490065;55;21072;-77
2020/12/25 05:25:03;;;;;;;6.03;2.00;;;7.00;71.40;;;;;;2261621;56;21422;-77
2020/12/25 05:27:30;;;;;;;4.90;2.08;;;7.00;71.50;;;;;;2490005;55;20976;-78
2020/12/25 05:29:58;;;;;;;4.12;2.37;;;7.00;71.50;;;;;;2262334;56;20960;-77
2020/12/25 05:32:33;;;;;;;3.90;2.03;;;7.00;71.50;;;;;;2261813;56;20992;-77
2020/12/25 05:34:59;;;;;;;5.50;2.20;;;7.00;71.50;;;;;;2490714;55;20965;-78
2020/12/25 05:37:35;;;;;;;5.00;2.00;;;7.00;71.60;;;;;;2248624;56;20937;-79
2020/12/25 05:40:42;;;;;;;5.03;2.25;;;7.00;71.60;;;;;;2264828;56;20957;-78
2020/12/25 05:43:08;;;;;;;5.75;2.12;;;7.00;71.50;;;;;;2464821;55;21480;-78
2020/12/25 05:45:42;;;;;;;5.25;2.28;;;7.00;71.80;;;;;;2489697;55;20998;-77
2020/12/25 05:48:08;;;;;;;4.40;2.53;;;7.00;71.90;;;;;;2470286;55;20960;-78
2020/12/25 05:50:36;;;;;;;4.32;1.90;;;7.00;71.90;;;;;;2491499;55;20993;-76
2020/12/25 05:53:03;;;;;;;3.45;1.75;;;7.00;72.10;;;;;;2473771;55;20988;-78
2020/12/25 05:55:29;;;;;;;4.68;2.00;;;7.00;72.10;;;;;;2254492;55;21543;-76
2020/12/25 05:57:57;;;;;;;4.97;2.00;;;7.00;72.20;;;;;;2490227;55;20989;-77
2020/12/25 06:00:25;;;;;;;3.53;1.70;;;7.00;72.20;;;;;;2490514;55;21005;-78
2020/12/25 06:02:52;;;;;;;4.15;1.85;;;7.00;72.10;;;;;;2265947;55;20956;-76
2020/12/25 06:05:20;;;;;;;3.80;2.08;;;7.00;72.10;;;;;;2472311;55;20973;-76
2020/12/25 06:07:57;;;;;;;5.07;2.28;;;7.00;72.10;;;;;;2489820;55;21004;-76
2020/12/25 06:10:30;;;;;;;5.28;2.12;;;7.00;72.20;;;;;;2262170;56;20972;-76
2020/12/25 06:12:57;;;;;;;5.62;2.25;;;7.10;72.30;;;;;;2490604;55;20929;-76
2020/12/25 06:15:28;;;;;;;4.87;2.47;;;7.10;72.20;;;;;;2261623;56;20996;-77
2020/12/25 06:18:20;;;;;;;3.92;2.35;;;7.10;72.10;;;;;;2490171;55;21073;-76
2020/12/25 06:21:02;;;;;;;4.40;2.05;;;7.10;72.10;;;;;;2491475;55;21029;-78
2020/12/25 06:23:30;;;;;;;5.28;2.08;;;7.10;72.00;;;;;;2262538;56;20988;-78
2020/12/25 06:26:07;;;;;;;5.43;2.17;;;7.10;72.10;;;;;;2492606;55;21034;-77
2020/12/25 06:28:36;;;;;;;4.97;2.25;;;7.10;72.10;;;;;;2257078;56;20964;-76
2020/12/25 06:31:02;;;;;;;4.80;2.03;;;7.10;72.10;;;;;;2488297;55;20997;-78
2020/12/25 06:33:29;;;;;;;5.05;2.12;;;7.10;72.00;;;;;;2474678;55;20964;-76
2020/12/25 06:35:59;;;;;;;6.15;2.35;;;7.10;72.00;;;;;;2490196;55;20984;-77
2020/12/25 06:38:26;;;;;;;3.75;2.00;;;7.10;71.90;;;;;;2490294;55;20961;-75
2020/12/25 06:40:57;;;;;;;3.92;2.42;;;7.00;71.80;;;;;;2490917;55;21004;-79
2020/12/25 06:43:23;;;;;;;5.47;2.20;;;7.10;71.90;;;;;;2490023;55;20945;-77
2020/12/25 06:45:51;;;;;;;3.33;1.85;;;7.10;71.90;;;;;;2490910;55;20959;-78
2020/12/25 06:48:19;;;;;;;4.25;2.40;;;7.10;72.00;;;;;;2478453;55;20985;-78
2020/12/25 06:51:01;;;;;;;5.70;2.58;;;7.10;72.00;;;;;;2471408;55;20959;-77
2020/12/25 06:53:38;;;;;;;4.45;2.20;;;7.10;72.00;;;;;;2490214;55;21028;-76
2020/12/25 06:56:16;;;;;;;5.43;2.00;;;7.10;72.00;;;;;;2490176;55;21040;-75
2020/12/25 06:58:49;;;;;;;4.55;2.20;;;7.10;71.90;;;;;;2490132;55;21684;-78
2020/12/25 07:02:02;;;;;;;4.28;2.25;;;7.10;71.80;;;;;;2490989;55;21524;-78
2020/12/25 07:04:32;;;;;;;4.35;1.98;;;7.10;71.80;;;;;;2491031;55;21831;-77
2020/12/25 07:07:10;;;;;;;3.90;1.95;;;7.10;71.80;;;;;;2490151;55;20928;-78
2020/12/25 07:09:41;;;;;;;4.87;2.47;;;7.10;71.90;;;;;;2261935;56;21119;-77
2020/12/25 07:12:13;;;;;;;6.45;2.42;;;7.10;72.00;;;;;;2490914;55;21004;-78
2020/12/25 07:14:41;;;;;;;3.78;2.05;;;7.10;72.00;;;;;;2266737;55;21037;-78
2020/12/25 07:17:10;;;;;;;4.78;2.35;;;7.10;72.00;;;;;;2474506;55;21019;-78
2020/12/25 07:19:39;;;;;;;4.43;2.60;;;7.10;72.00;;;;;;2259907;56;21004;-77
2020/12/25 07:22:06;;;;;;;7.37;2.65;;;7.10;71.90;;;;;;2491002;55;21039;-78
2020/12/25 07:24:38;;;;;;;4.65;2.40;;;7.10;72.00;;;;;;2490258;55;21031;-78
2020/12/25 07:27:06;;;;;;;4.50;2.35;;;7.10;71.90;;;;;;2489883;55;20985;-77
2020/12/25 07:29:34;;;;;;;5.50;2.37;;;7.10;71.90;;;;;;2261478;56;20980;-76
2020/12/25 07:32:31;;;;;;;5.78;2.37;;;7.10;71.90;;;;;;2262007;56;21516;-77
2020/12/25 07:35:06;;;;;;;5.32;2.22;;;7.10;71.70;;;;;;2260843;56;21015;-78
2020/12/25 07:37:32;;;;;;;6.62;2.45;;;7.10;71.80;;;;;;2490513;55;21794;-79
2020/12/25 07:40:04;;;;;;;5.37;2.67;;;7.10;71.80;;;;;;2490358;55;21100;-77
2020/12/25 07:42:31;;;;;;;4.28;2.40;;;7.10;71.90;;;;;;2491112;55;20949;-75
2020/12/25 07:44:59;;;;;;;4.78;2.72;;;7.10;71.90;;;;;;2265472;55;20957;-77
2020/12/25 07:47:26;;;;;;;4.62;2.65;;;7.10;71.90;;;;;;2489549;55;21856;-78
2020/12/25 07:49:54;;;;;;;6.30;3.33;;;7.10;71.90;;;;;;2489603;55;21004;-77
2020/12/25 07:52:20;;;;;;;8.25;3.53;;;7.10;72.00;;;;;;2270315;55;20973;-76
2020/12/25 07:54:47;;;;;;;7.32;4.45;;;7.10;71.90;;;;;;2490921;55;21020;-77
2020/12/25 07:57:14;;;;;;;7.60;4.28;;;7.10;72.00;;;;;;2491319;55;21485;-78
2020/12/25 07:59:41;;;;;;;6.15;3.60;;;7.10;72.00;;;;;;2491577;55;21513;-76
2020/12/25 08:02:09;;;;;;;8.25;2.65;;;7.10;72.00;;;;;;2480953;55;21054;-78
2020/12/25 08:04:39;;;;;;;8.15;3.47;;;7.10;72.00;;;;;;2487464;55;20993;-75
2020/12/25 08:07:07;;;;;;;5.28;2.92;;;7.10;72.00;;;;;;2474625;55;20982;-76
2020/12/25 08:09:34;;;;;;;4.72;2.40;;;7.10;71.80;;;;;;2480229;55;21024;-79
2020/12/25 08:12:01;;;;;;;5.10;2.80;;;7.10;71.80;;;;;;2490590;55;22617;-78
2020/12/25 08:14:27;;;;;;;5.37;2.58;;;7.10;71.80;;;;;;2490474;55;21020;-78
2020/12/25 08:16:54;;;;;;;4.57;2.67;;;7.10;71.90;;;;;;2489346;55;20974;-77
2020/12/25 08:19:20;;;;;;;4.68;2.50;;;7.10;71.90;;;;;;2490966;55;21465;-78
2020/12/25 08:21:47;;;;;;;5.55;2.62;;;7.10;71.90;;;;;;2491212;55;21112;-78
2020/12/25 08:24:17;;;;;;;4.65;3.00;;;7.00;72.00;;;;;;2262513;56;21064;-78
2020/12/25 08:26:46;;;;;;;5.07;3.12;;;7.00;72.10;;;;;;2490451;55;20976;-76
2020/12/25 08:29:14;;;;;;;5.75;3.12;;;7.10;72.20;;;;;;2488918;55;21023;-77
2020/12/25 08:31:41;;;;;;;4.60;2.53;;;7.10;72.20;;;;;;2486938;55;20984;-76
2020/12/25 08:34:14;;;;;;;5.05;2.85;;;7.10;72.20;;;;;;2491127;55;21864;-76
2020/12/25 08:36:42;;;;;;;6.60;2.80;;;7.10;72.10;;;;;;2256068;55;21464;-77
2020/12/25 08:39:08;;;;;;;4.82;2.90;;;7.10;72.20;;;;;;2252600;55;20988;-76
2020/12/25 08:41:36;;;;;;;5.30;2.92;;;7.10;72.30;;;;;;2259947;56;21507;-77
2020/12/25 08:44:09;;;;;;;5.05;2.60;;;7.10;72.40;;;;;;2490639;55;21052;-77
2020/12/25 08:46:36;;;;;;;5.80;2.90;;;7.20;72.40;;;;;;2260548;56;20977;-77
2020/12/25 08:49:03;;;;;;;4.55;2.70;;;7.20;72.40;;;;;;2489053;55;20952;-77
2020/12/25 08:51:34;;;;;;;6.50;3.25;;;7.20;72.40;;;;;;2490617;55;20988;-77
2020/12/25 08:54:02;;;;;;;5.60;3.13;;;7.20;72.30;;;;;;2490173;55;21103;-77
2020/12/25 08:56:29;;;;;;;5.62;3.03;;;7.20;72.30;;;;;;2488808;55;20996;-77
2020/12/25 08:59:16;;;;;;;7.15;3.37;;;7.30;72.40;;;;;;2489522;55;21036;-77
2020/12/25 09:01:42;;;;;;;6.10;3.22;;;7.20;72.10;;;;;;2490068;55;21071;-77
2020/12/25 09:04:12;;;;;;;5.75;3.35;;;7.20;72.10;;;;;;2481730;55;21052;-77
2020/12/25 09:06:39;;;;;;;7.62;3.72;;;7.20;72.10;;;;;;2248282;56;20957;-77
2020/12/25 09:09:14;;;;;;;5.05;2.95;;;7.20;72.10;;;;;;2490222;55;20956;-76
2020/12/25 09:11:40;;;;;;;4.70;2.78;;;7.20;72.10;;;;;;2489935;55;21009;-75
2020/12/25 09:14:07;;;;;;;4.68;3.00;;;7.30;72.20;;;;;;2265111;55;20961;-75
2020/12/25 09:16:33;;;;;;;5.20;3.30;;;7.20;72.20;;;;;;2490083;55;20976;-76
2020/12/25 09:19:05;;;;;;;6.05;3.17;;;7.30;72.40;;;;;;2489249;55;22299;-77
2020/12/25 09:21:31;;;;;;;6.75;3.10;;;7.30;72.50;;;;;;2265966;55;20984;-78
2020/12/25 09:23:58;;;;;;;3.80;2.30;;;7.30;72.60;;;;;;2489944;55;21719;-76
2020/12/25 09:26:25;;;;;;;5.62;3.12;;;7.30;72.60;;;;;;2453198;55;21000;-76
2020/12/25 09:28:52;;;;;;;5.55;3.37;;;7.30;72.60;;;;;;2487730;55;21113;-77
2020/12/25 09:31:19;;;;;;;5.28;2.97;;;7.30;72.60;;;;;;2486155;55;21719;-76
2020/12/25 09:33:46;;;;;;;5.87;2.95;;;7.40;72.80;;;;;;2489686;55;20960;-76
2020/12/25 09:36:16;;;;;;;6.05;3.60;;;7.40;72.80;;;;;;2260671;56;21157;-77
2020/12/25 09:38:43;;;;;;;5.97;3.15;;;7.40;72.70;;;;;;2262764;55;21020;-76
2020/12/25 09:41:30;;;;;;;7.00;3.35;;;7.40;72.60;;;;;;2486220;55;21012;-77
2020/12/25 09:43:57;;;;;;;5.90;3.58;;;7.40;72.50;;;;;;2489745;55;21052;-77
2020/12/25 09:46:24;;;;;;;6.05;3.20;;;7.40;72.60;;;;;;2260779;56;21028;-77
2020/12/25 09:48:50;;;;;;;5.22;3.10;;;7.50;72.70;;;;;;2488784;55;21650;-77
2020/12/25 09:51:24;;;;;;;7.10;4.10;;;7.50;72.60;;;;;;2486778;55;20980;-77
2020/12/25 09:53:54;;;;;;;6.43;3.47;;;7.50;72.50;;;;;;2259969;56;21015;-76
2020/12/25 09:56:20;;;;;;;6.35;3.65;;;7.50;72.50;;;;;;2260663;55;20993;-76
2020/12/25 09:58:47;;;;;;;6.62;3.67;;;7.50;72.50;;;;;;2489391;55;21084;-75
2020/12/25 10:01:18;;;;;;;6.70;3.80;;;7.50;72.40;;;;;;2476064;55;20963;-76
2020/12/25 10:03:45;;;;;;;6.18;3.22;;;7.50;72.30;;;;;;2472912;55;21001;-76
2020/12/25 10:06:12;;;;;;;7.05;3.15;;;7.50;72.20;;;;;;2244536;56;20973;-76
2020/12/25 10:08:38;;;;;;;7.65;4.50;;;7.50;72.20;;;;;;2455292;55;1961692;-76
2020/12/25 10:11:05;;;;;;;6.68;3.80;;;7.50;72.20;;;;;;2267988;56;21013;-75
2020/12/25 10:14:04;;;;;;;7.00;3.78;;;7.50;72.10;;;;;;2473045;55;21138;-77
2020/12/25 10:16:30;;;;;;;5.70;3.33;;;7.50;71.90;;;;;;2434969;56;21033;-76
2020/12/25 10:18:58;;;;;;;6.03;3.42;;;7.50;72.00;;;;;;2458694;55;21579;-76
2020/12/25 10:21:26;;;;;;;5.82;3.25;;;7.50;72.10;;;;;;2450670;55;21491;-76
2020/12/25 10:23:54;;;;;;;7.87;3.83;;;7.50;72.20;;;;;;2238541;56;21015;-75
2020/12/25 10:26:20;;;;;;;7.15;3.62;;;7.50;72.30;;;;;;2456318;55;21045;-75
2020/12/25 10:28:47;;;;;;;7.40;4.22;;;7.50;72.30;;;;;;2256109;56;20937;-76
2020/12/25 10:31:15;;;;;;;7.25;3.90;;;7.50;72.50;;;;;;2261695;56;20945;-77
2020/12/25 10:33:43;;;;;;;6.30;3.80;;;7.60;72.60;;;;;;2484955;55;20964;-76
2020/12/25 10:36:12;;;;;;;8.20;3.47;;;7.60;72.70;;;;;;2485645;55;21111;-76
2020/12/25 10:38:39;;;;;;;7.85;4.37;;;7.60;72.60;;;;;;2458959;55;21025;-76
2020/12/25 10:41:07;;;;;;;7.03;3.90;;;7.60;72.50;;;;;;2260155;55;21025;-75
2020/12/25 10:43:35;;;;;;;7.80;4.50;;;7.60;72.40;;;;;;2257445;55;21012;-77
2020/12/25 10:46:01;;;;;;;5.55;3.37;;;7.60;72.20;;;;;;2262769;56;21028;-76
2020/12/25 10:48:28;;;;;;;6.20;3.45;;;7.60;72.00;;;;;;2485121;55;21510;-77
2020/12/25 10:50:55;;;;;;;6.72;3.67;;;7.60;71.90;;;;;;2484612;55;20976;-76
2020/12/25 10:53:22;;;;;;;6.80;3.47;;;7.60;71.80;;;;;;2484777;55;21005;-77
2020/12/25 10:55:48;;;;;;;5.22;3.03;;;7.50;71.70;;;;;;2264475;55;21597;-76
2020/12/25 10:58:15;;;;;;;7.07;3.40;;;7.50;71.80;;;;;;2242679;56;21613;-76
2020/12/25 11:00:42;;;;;;;6.15;3.25;;;7.50;71.80;;;;;;2483972;55;21072;-77
2020/12/25 11:03:10;;;;;;;7.10;3.62;;;7.50;71.90;;;;;;2485830;55;21108;-77
2020/12/25 11:05:37;;;;;;;7.82;4.05;;;7.50;72.00;;;;;;2485207;55;21641;-76
2020/12/25 11:08:06;;;;;;;8.05;3.58;;;7.50;72.20;;;;;;2228872;57;20944;-76
2020/12/25 11:10:45;;;;;;;5.73;3.47;;;7.50;72.20;;;;;;2262083;56;20985;-77
2020/12/25 11:13:12;;;;;;;7.05;3.72;;;7.50;72.20;;;;;;2486150;55;20973;-76
2020/12/25 11:15:40;;;;;;;6.10;3.42;;;7.50;72.20;;;;;;2479620;55;21075;-77
2020/12/25 11:18:07;;;;;;;6.90;4.07;;;7.50;72.30;;;;;;2487151;55;21482;-77
2020/12/25 11:20:34;;;;;;;6.65;3.83;;;7.50;72.30;;;;;;2467835;55;21028;-76
2020/12/25 11:23:01;;;;;;;7.03;3.60;;;7.50;72.30;;;;;;2459571;55;21010;-76
2020/12/25 11:25:27;;;;;;;6.78;3.58;;;7.50;72.30;;;;;;2265608;56;20953;-76
2020/12/25 11:27:55;;;;;;;5.50;3.45;;;7.50;72.30;;;;;;2485121;55;20992;-77
2020/12/25 11:30:21;;;;;;;7.68;3.70;;;7.50;72.30;;;;;;2260440;56;21144;-76
2020/12/25 11:32:49;;;;;;;6.68;3.42;;;7.50;72.30;;;;;;2262010;56;20988;-77
2020/12/25 11:35:16;;;;;;;6.25;3.47;;;7.50;72.40;;;;;;2261312;55;21004;-76
2020/12/25 11:37:42;;;;;;;6.62;3.50;;;7.50;72.50;;;;;;2263214;56;21566;-75
2020/12/25 11:40:09;;;;;;;6.68;3.58;;;7.50;72.50;;;;;;2263240;56;21056;-77
2020/12/25 11:42:35;;;;;;;6.53;3.97;;;7.50;72.50;;;;;;2473938;55;21033;-77
2020/12/25 11:45:02;;;;;;;6.35;3.17;;;7.50;72.60;;;;;;2471286;55;20992;-76
2020/12/25 11:47:31;;;;;;;5.80;3.25;;;7.50;73.40;;;;;;2489878;55;20944;-75
2020/12/25 11:49:58;;;;;;;9.63;3.97;;;7.60;73.00;;;;;;2489510;55;20976;-76
2020/12/25 11:52:29;;;;;;;6.25;3.47;;;7.60;73.00;;;;;;2265247;56;21080;-76
2020/12/25 11:54:56;;;;;;;7.18;3.75;;;7.60;72.90;;;;;;2486189;55;21009;-77
2020/12/25 11:57:23;;;;;;;7.37;3.33;;;7.60;72.80;;;;;;2262006;56;21016;-76
2020/12/25 11:59:50;;;;;;;6.95;3.72;;;7.60;72.60;;;;;;2262197;55;21033;-76
2020/12/25 12:02:17;;;;;;;6.72;3.22;;;7.60;72.50;;;;;;2261395;56;20992;-77
2020/12/25 12:04:43;;;;;;;6.18;3.40;;;7.60;72.40;;;;;;2263638;56;21031;-76
2020/12/25 12:07:10;;;;;;;6.20;3.33;;;7.60;72.10;;;;;;2254484;55;21047;-75
2020/12/25 12:09:37;;;;;;;6.43;3.12;;;7.60;72.10;;;;;;2243605;55;21056;-75
2020/12/25 12:12:03;;;;;;;5.65;3.20;;;7.60;72.00;;;;;;2488836;55;20992;-76
2020/12/25 12:14:34;;;;;;;5.32;2.87;;;7.60;72.10;;;;;;2489533;55;21022;-76
2020/12/25 12:17:00;;;;;;;5.43;3.12;;;7.60;72.10;;;;;;2254756;56;20965;-77
2020/12/25 12:19:27;;;;;;;6.97;3.60;;;7.60;72.30;;;;;;2260763;56;21966;-76
2020/12/25 12:21:53;;;;;;;5.40;3.15;;;7.60;73.10;;;;;;2490850;55;21592;-76
2020/12/25 12:24:21;;;;;;;6.90;3.40;;;7.60;72.60;;;;;;2483439;55;20949;-76
2020/12/25 12:26:58;;;;;;;6.00;3.10;;;7.60;72.70;;;;;;2261899;56;20968;-75
2020/12/25 12:29:24;;;;;;;6.47;3.20;;;7.60;72.70;;;;;;2487110;55;20949;-76
2020/12/25 12:31:51;;;;;;;4.97;2.80;;;7.70;72.80;;;;;;2261567;55;21096;-75
2020/12/25 12:34:19;;;;;;;5.40;3.45;;;7.70;72.60;;;;;;2489809;55;21838;-76
2020/12/25 12:36:46;;;;;;;5.53;2.85;;;7.70;72.50;;;;;;2262715;56;20996;-76
2020/12/25 12:39:13;;;;;;;6.78;3.28;;;7.70;72.30;;;;;;2486686;55;21028;-76
2020/12/25 12:41:45;;;;;;;7.30;2.92;;;7.70;72.20;;;;;;2240385;57;21020;-75
2020/12/25 12:44:11;;;;;;;6.35;3.50;;;7.70;72.10;;;;;;2491098;55;21000;-75
2020/12/25 12:46:38;;;;;;;7.87;3.62;;;7.70;72.10;;;;;;2490331;55;20988;-76
2020/12/25 12:49:06;;;;;;;5.57;3.10;;;7.70;72.10;;;;;;2488619;55;21929;-76
2020/12/25 12:51:34;;;;;;;5.47;2.78;;;7.70;72.10;;;;;;2260978;56;20968;-76
2020/12/25 12:54:01;;;;;;;5.15;2.87;;;7.70;72.10;;;;;;2485912;55;21057;-76
2020/12/25 12:56:28;;;;;;;5.72;2.85;;;7.70;72.20;;;;;;2472939;55;20921;-75
2020/12/25 12:58:54;;;;;;;5.78;3.40;;;7.70;72.20;;;;;;2489917;55;21009;-76
2020/12/25 13:01:23;;;;;;;8.75;2.87;;;7.70;72.20;;;;;;2490959;55;20944;-75
2020/12/25 13:03:50;;;;;;;6.97;3.37;;;7.70;72.10;;;;;;2255391;55;21687;-75